createdAt,value
2022-11-26T00:00:25.838Z,-7.18
2022-11-26T00:02:30.860Z,-7.22
2022-11-26T00:04:33.571Z,-7.23
2022-11-26T00:06:39.531Z,-7.27
2022-11-26T00:08:41.608Z,-7.20
2022-11-26T00:10:44.294Z,-7.16
2022-11-26T00:12:46.831Z,-7.22
2022-11-26T00:14:49.158Z,-7.22
2022-11-26T00:16:51.274Z,-7.18
2022-11-26T00:18:53.331Z,-7.27
2022-11-26T00:20:59.838Z,-7.15
2022-11-26T00:23:04.472Z,-7.19
2022-11-26T00:25:13.090Z,-7.00
2022-11-26T00:27:15.100Z,-6.99
2022-11-26T00:29:17.234Z,-7.01
2022-11-26T00:31:20.339Z,-6.95
2022-11-26T00:33:23.326Z,-7.00
2022-11-26T00:35:25.891Z,-6.97
2022-11-26T00:37:34.166Z,-6.92
2022-11-26T00:39:37.036Z,-7.06
2022-11-26T00:41:39.440Z,-6.99
2022-11-26T00:43:42.078Z,-7.06
2022-11-26T00:45:45.281Z,-7.11
2022-11-26T00:47:47.382Z,-7.16
2022-11-26T00:49:49.403Z,-7.10
2022-11-26T00:51:51.515Z,-7.02
2022-11-26T00:53:55.692Z,-6.97
2022-11-26T00:55:57.954Z,-7.06
2022-11-26T00:57:59.899Z,-7.03
2022-11-26T01:00:02.295Z,-7.15
2022-11-26T01:02:04.269Z,-7.06
2022-11-26T01:04:06.578Z,-7.07
2022-11-26T01:06:14.556Z,-6.95
2022-11-26T01:08:35.909Z,-7.01
2022-11-26T01:10:37.936Z,-7.10
2022-11-26T01:12:40.191Z,-7.05
2022-11-26T01:14:42.480Z,-7.06
2022-11-26T01:16:46.580Z,-7.07
2022-11-26T01:18:50.536Z,-7.05
2022-11-26T01:20:52.652Z,-6.93
2022-11-26T01:22:57.011Z,-6.89
2022-11-26T01:24:58.981Z,-7.00
2022-11-26T01:27:01.043Z,-6.87
2022-11-26T01:29:03.232Z,-6.86
2022-11-26T01:31:05.259Z,-6.91
2022-11-26T01:33:07.837Z,-6.98
2022-11-26T01:35:10.610Z,-6.97
2022-11-26T01:37:14.346Z,-6.93
2022-11-26T01:39:18.944Z,-6.95
2022-11-26T01:41:35.079Z,-7.10
2022-11-26T01:43:43.282Z,-7.02
2022-11-26T01:45:45.917Z,-7.04
2022-11-26T01:47:49.803Z,-7.01
2022-11-26T01:50:32.025Z,-7.05
2022-11-26T01:52:34.192Z,-7.00
2022-11-26T01:54:40.505Z,-6.94
2022-11-26T01:56:52.596Z,-6.91
2022-11-26T01:59:19.023Z,-6.98
2022-11-26T02:01:23.813Z,-7.21
2022-11-26T02:03:28.271Z,-7.10
2022-11-26T02:05:33.570Z,-7.12
2022-11-26T02:07:36.773Z,-7.18
2022-11-26T02:09:39.438Z,-7.17
2022-11-26T02:11:41.705Z,-7.08
2022-11-26T02:13:44.510Z,-7.08
2022-11-26T02:16:18.247Z,-7.10
2022-11-26T02:18:22.292Z,-7.05
2022-11-26T02:20:46.483Z,-6.97
2022-11-26T02:22:57.521Z,-7.03
2022-11-26T02:25:38.617Z,-6.96
2022-11-26T02:27:52.994Z,-6.95
2022-11-26T02:30:10.671Z,-7.05
2022-11-26T02:32:20.887Z,-6.91
2022-11-26T02:34:41.825Z,-6.85
2022-11-26T02:36:59.153Z,-6.78
2022-11-26T02:39:13.083Z,-6.77
2022-11-26T02:41:15.096Z,-6.68
2022-11-26T02:43:17.609Z,-6.68
2022-11-26T02:45:31.058Z,-6.77
2022-11-26T02:47:34.955Z,-6.65
2022-11-26T02:49:39.418Z,-6.62
2022-11-26T02:51:42.876Z,-6.70
2022-11-26T02:53:49.056Z,-6.70
2022-11-26T02:56:01.063Z,-6.84
2022-11-26T02:58:04.287Z,-6.79
2022-11-26T03:00:07.123Z,-6.87
2022-11-26T03:02:19.839Z,-6.91
2022-11-26T03:04:29.709Z,-6.97
2022-11-26T03:06:35.003Z,-6.97
2022-11-26T03:08:37.902Z,-6.94
2022-11-26T03:10:39.929Z,-7.05
2022-11-26T03:12:41.979Z,-6.99
2022-11-26T03:14:44.128Z,-6.95
2022-11-26T03:16:46.229Z,-7.00
2022-11-26T03:18:48.366Z,-6.98
2022-11-26T03:20:52.502Z,-6.97
2022-11-26T03:22:54.787Z,-6.97
2022-11-26T03:24:56.773Z,-7.07
2022-11-26T03:26:59.438Z,-7.10
2022-11-26T03:29:01.418Z,-7.06
2022-11-26T03:31:03.540Z,-7.00
2022-11-26T03:33:05.698Z,-6.99
2022-11-26T03:35:08.305Z,-6.95
2022-11-26T03:37:10.559Z,-6.96
2022-11-26T03:39:13.300Z,-7.09
2022-11-26T03:41:15.322Z,-7.00
2022-11-26T03:43:17.385Z,-7.00
2022-11-26T03:45:19.568Z,-7.00
2022-11-26T03:47:21.671Z,-6.97
2022-11-26T03:49:23.946Z,-7.01
2022-11-26T03:51:26.105Z,-6.94
2022-11-26T03:53:28.024Z,-7.05
2022-11-26T03:55:29.978Z,-7.12
2022-11-26T03:57:32.037Z,-7.17
2022-11-26T03:59:34.136Z,-7.14
2022-11-26T04:01:36.431Z,-7.25
2022-11-26T04:03:39.196Z,-7.20
2022-11-26T04:05:41.460Z,-7.19
2022-11-26T04:07:43.724Z,-7.12
2022-11-26T04:09:45.974Z,-7.16
2022-11-26T04:11:48.133Z,-7.23
2022-11-26T04:13:50.163Z,-7.27
2022-11-26T04:15:52.530Z,-7.22
2022-11-26T04:17:54.638Z,-7.13
2022-11-26T04:19:56.637Z,-7.07
2022-11-26T04:21:58.766Z,-7.14
2022-11-26T04:24:00.815Z,-7.10
2022-11-26T04:26:03.077Z,-7.13
2022-11-26T04:28:05.350Z,-7.19
2022-11-26T04:30:08.020Z,-7.15
2022-11-26T04:32:10.047Z,-7.13
2022-11-26T04:34:12.133Z,-7.01
2022-11-26T04:36:14.124Z,-7.31
2022-11-26T04:38:16.193Z,-7.17
2022-11-26T04:40:18.300Z,-7.18
2022-11-26T04:42:20.502Z,-7.18
2022-11-26T04:44:22.526Z,-7.16
2022-11-26T04:46:24.666Z,-7.12
2022-11-26T04:48:26.768Z,-7.16
2022-11-26T04:50:28.862Z,-7.10
2022-11-26T04:52:30.925Z,-7.10
2022-11-26T04:54:32.991Z,-7.13
2022-11-26T04:56:34.956Z,-7.20
2022-11-26T04:58:37.117Z,-7.16
2022-11-26T05:00:40.201Z,-7.23
2022-11-26T05:02:42.377Z,-7.22
2022-11-26T05:04:44.669Z,-7.31
2022-11-26T05:06:47.028Z,-7.36
2022-11-26T05:08:48.981Z,-7.33
2022-11-26T05:10:58.499Z,-7.36
2022-11-26T05:13:01.242Z,-7.39
2022-11-26T05:15:04.705Z,-7.38
2022-11-26T05:17:06.902Z,-7.33
2022-11-26T05:19:08.926Z,-7.37
2022-11-26T05:21:11.040Z,-7.46
2022-11-26T05:23:13.769Z,-7.44
2022-11-26T05:25:15.952Z,-7.54
2022-11-26T05:27:18.129Z,-7.64
2022-11-26T05:29:20.135Z,-7.52
2022-11-26T05:31:23.449Z,-7.66
2022-11-26T05:33:26.096Z,-7.46
2022-11-26T05:35:28.195Z,-7.60
2022-11-26T05:37:30.572Z,-7.42
2022-11-26T05:39:32.769Z,-7.55
2022-11-26T05:41:35.011Z,-7.43
2022-11-26T05:43:37.176Z,-7.43
2022-11-26T05:45:39.449Z,-7.46
2022-11-26T05:47:41.641Z,-7.34
2022-11-26T05:49:44.167Z,-7.43
2022-11-26T05:51:46.200Z,-7.45
2022-11-26T05:53:48.369Z,-7.52
2022-11-26T05:55:50.409Z,-7.38
2022-11-26T05:57:53.161Z,-7.52
2022-11-26T05:59:55.233Z,-7.53
2022-11-26T06:01:57.830Z,-7.43
2022-11-26T06:03:59.915Z,-7.34
2022-11-26T06:06:02.619Z,-7.32
2022-11-26T06:08:04.912Z,-7.28
2022-11-26T06:10:08.346Z,-7.35
2022-11-26T06:12:10.412Z,-7.47
2022-11-26T06:14:12.506Z,-7.38
2022-11-26T06:16:14.656Z,-7.31
2022-11-26T06:18:17.479Z,-7.57
2022-11-26T06:20:19.641Z,-7.37
2022-11-26T06:22:21.761Z,-7.38
2022-11-26T06:24:24.267Z,-7.28
2022-11-26T06:26:26.315Z,-7.35
2022-11-26T06:28:28.355Z,-7.33
2022-11-26T06:30:30.541Z,-7.33
2022-11-26T06:32:33.269Z,-7.35
2022-11-26T06:34:35.381Z,-7.38
2022-11-26T06:36:37.780Z,-7.54
2022-11-26T06:38:39.968Z,-7.52
2022-11-26T06:40:42.007Z,-7.42
2022-11-26T06:42:52.267Z,-7.41
2022-11-26T06:44:59.488Z,-7.55
2022-11-26T06:47:02.184Z,-7.45
2022-11-26T06:49:05.851Z,-7.50
2022-11-26T06:51:13.390Z,-7.53
2022-11-26T06:53:15.498Z,-7.43
2022-11-26T06:55:17.597Z,-7.34
2022-11-26T06:57:19.619Z,-7.35
2022-11-26T06:59:22.205Z,-7.36
2022-11-26T07:01:26.818Z,-7.28
2022-11-26T07:03:33.223Z,-7.21
2022-11-26T07:05:36.235Z,-7.09
2022-11-26T07:07:39.999Z,-7.15
2022-11-26T07:09:42.346Z,-7.12
2022-11-26T07:11:44.531Z,-7.16
2022-11-26T07:13:46.736Z,-7.13
2022-11-26T07:15:49.010Z,-7.18
2022-11-26T07:17:51.249Z,-7.24
2022-11-26T07:19:53.591Z,-7.21
2022-11-26T07:21:55.660Z,-7.20
2022-11-26T07:23:58.781Z,-7.13
2022-11-26T07:26:02.275Z,-7.02
2022-11-26T07:28:04.713Z,-7.04
2022-11-26T07:30:07.020Z,-7.07
2022-11-26T07:32:09.903Z,-7.10
2022-11-26T07:34:14.868Z,-7.19
2022-11-26T07:36:20.542Z,-7.11
2022-11-26T07:38:22.523Z,-7.03
2022-11-26T07:40:26.249Z,-6.96
2022-11-26T07:42:31.765Z,-7.05
2022-11-26T07:44:33.905Z,-7.10
2022-11-26T07:46:36.440Z,-7.03
2022-11-26T07:48:40.381Z,-6.88
2022-11-26T07:51:26.124Z,-6.81
2022-11-26T07:53:32.595Z,-6.86
2022-11-26T07:55:34.765Z,-6.89
2022-11-26T07:57:36.924Z,-7.11
2022-11-26T07:59:38.973Z,-7.13
2022-11-26T08:01:41.203Z,-7.26
2022-11-26T08:03:46.963Z,-7.24
2022-11-26T08:06:12.225Z,-7.16
2022-11-26T08:08:15.559Z,-7.09
2022-11-26T08:10:18.179Z,-7.01
2022-11-26T08:12:20.390Z,-7.06
2022-11-26T08:14:22.586Z,-7.00
2022-11-26T08:16:27.707Z,-6.99
2022-11-26T08:18:31.556Z,-6.97
2022-11-26T08:20:45.845Z,-7.05
2022-11-26T08:22:48.869Z,-6.93
2022-11-26T08:24:52.054Z,-6.86
2022-11-26T08:26:54.254Z,-6.89
2022-11-26T08:28:56.797Z,-6.89
2022-11-26T08:31:08.071Z,-6.96
2022-11-26T08:33:10.293Z,-6.84
2022-11-26T08:35:12.751Z,-6.75
2022-11-26T08:37:14.820Z,-6.66
2022-11-26T08:39:19.039Z,-6.55
2022-11-26T08:41:21.332Z,-6.53
2022-11-26T08:43:34.676Z,-6.57
2022-11-26T08:45:52.747Z,-6.65
2022-11-26T08:47:55.429Z,-6.54
2022-11-26T08:49:57.739Z,-6.48
2022-11-26T08:51:59.784Z,-6.56
2022-11-26T08:54:02.834Z,-6.58
2022-11-26T08:56:10.265Z,-6.43
2022-11-26T08:58:12.438Z,-6.43
2022-11-26T09:00:15.077Z,-6.43
2022-11-26T09:02:18.973Z,-6.45
2022-11-26T09:04:21.323Z,-6.37
2022-11-26T09:06:25.715Z,-6.33
2022-11-26T09:08:28.415Z,-6.25
2022-11-26T09:10:30.517Z,-6.23
2022-11-26T09:12:32.634Z,-6.12
2022-11-26T09:14:40.550Z,-6.01
2022-11-26T09:16:43.276Z,-5.83
2022-11-26T09:18:45.561Z,-5.73
2022-11-26T09:20:47.603Z,-5.82
2022-11-26T09:22:49.654Z,-5.92
2022-11-26T09:24:52.220Z,-5.96
2022-11-26T09:26:54.470Z,-6.01
2022-11-26T09:28:57.061Z,-5.97
2022-11-26T09:30:59.942Z,-6.29
2022-11-26T09:33:02.116Z,-6.33
2022-11-26T09:35:04.554Z,-6.34
2022-11-26T09:37:07.514Z,-6.34
2022-11-26T09:39:13.390Z,-6.29
2022-11-26T09:41:39.979Z,-6.15
2022-11-26T09:44:00.440Z,-5.91
2022-11-26T09:46:03.871Z,-5.93
2022-11-26T09:48:14.789Z,-6.00
2022-11-26T09:50:21.154Z,-6.15
2022-11-26T09:52:28.802Z,-5.96
2022-11-26T09:54:32.059Z,-6.00
2022-11-26T09:56:34.442Z,-5.89
2022-11-26T09:58:49.771Z,-5.87
2022-11-26T10:00:54.756Z,-5.90
2022-11-26T10:02:58.004Z,-5.65
2022-11-26T10:05:00.631Z,-5.83
2022-11-26T10:07:33.742Z,-5.84
2022-11-26T10:09:35.840Z,-5.84
2022-11-26T10:11:44.523Z,-5.70
2022-11-26T10:13:46.585Z,-5.64
2022-11-26T10:16:12.238Z,-5.63
2022-11-26T10:18:36.034Z,-5.72
2022-11-26T10:21:05.263Z,-5.74
2022-11-26T10:23:13.495Z,-5.73
2022-11-26T10:25:19.694Z,-5.63
2022-11-26T10:27:27.186Z,-5.84
2022-11-26T10:29:39.635Z,-5.87
2022-11-26T10:31:44.864Z,-5.90
2022-11-26T10:34:02.364Z,-6.05
2022-11-26T10:36:09.325Z,-5.95
2022-11-26T10:38:11.452Z,-5.96
2022-11-26T10:40:32.748Z,-6.08
2022-11-26T10:42:48.630Z,-6.18
2022-11-26T10:44:52.888Z,-6.14
2022-11-26T10:46:55.361Z,-6.08
2022-11-26T10:49:23.100Z,-6.11
2022-11-26T10:51:33.301Z,-6.24
2022-11-26T10:54:02.848Z,-6.31
2022-11-26T10:56:07.759Z,-6.31
2022-11-26T10:58:24.187Z,-6.26
2022-11-26T11:00:32.740Z,-6.27
2022-11-26T11:02:41.400Z,-6.40
2022-11-26T11:04:51.068Z,-6.40
2022-11-26T11:06:53.693Z,-6.32
2022-11-26T11:08:57.163Z,-6.39
2022-11-26T11:11:22.666Z,-6.41
2022-11-26T11:13:43.279Z,-6.42
2022-11-26T11:15:45.674Z,-6.46
2022-11-26T11:18:05.835Z,-6.44
2022-11-26T11:20:20.835Z,-6.54
2022-11-26T11:22:23.742Z,-6.61
2022-11-26T11:24:29.476Z,-6.60
2022-11-26T11:26:43.916Z,-6.57
2022-11-26T11:28:51.160Z,-6.51
2022-11-26T11:31:04.677Z,-6.55
2022-11-26T11:33:27.473Z,-6.60
2022-11-26T11:35:32.210Z,-6.58
2022-11-26T11:37:46.911Z,-6.67
2022-11-26T11:40:17.043Z,-6.69
2022-11-26T11:42:19.403Z,-6.58
2022-11-26T11:44:40.120Z,-6.50
2022-11-26T11:47:03.515Z,-6.50
2022-11-26T11:49:32.310Z,-6.64
2022-11-26T11:51:46.754Z,-6.64
2022-11-26T11:54:16.139Z,-6.71
2022-11-26T11:56:27.112Z,-6.68
2022-11-26T11:59:01.627Z,-6.73
2022-11-26T12:01:13.649Z,-6.89
2022-11-26T12:03:45.569Z,-6.96
2022-11-26T12:05:56.515Z,-6.95
2022-11-26T12:08:37.105Z,-6.92
2022-11-26T12:10:59.961Z,-7.06
2022-11-26T12:13:03.208Z,-7.21
2022-11-26T12:15:20.230Z,-7.24
2022-11-26T12:17:40.486Z,-7.15
2022-11-26T12:19:53.729Z,-7.31
2022-11-26T12:22:08.690Z,-7.25
2022-11-26T12:24:13.518Z,-7.22
2022-11-26T12:26:34.179Z,-7.11
2022-11-26T12:29:16.640Z,-7.12
2022-11-26T12:31:32.183Z,-7.10
2022-11-26T12:33:36.117Z,-7.31
2022-11-26T12:35:48.458Z,-7.28
2022-11-26T12:37:53.906Z,-7.23
2022-11-26T12:40:05.369Z,-7.26
2022-11-26T12:42:17.982Z,-7.33
2022-11-26T12:44:31.983Z,-7.29
2022-11-26T12:46:44.921Z,-7.32
2022-11-26T12:48:49.770Z,-7.31
2022-11-26T12:50:59.498Z,-7.33
2022-11-26T12:53:01.578Z,-7.39
2022-11-26T12:55:09.642Z,-7.39
2022-11-26T12:57:30.029Z,-7.28
2022-11-26T12:59:56.786Z,-7.21
2022-11-26T13:01:59.097Z,-7.27
2022-11-26T13:04:36.244Z,-7.18
2022-11-26T13:06:42.868Z,-7.18
2022-11-26T13:09:12.249Z,-7.21
2022-11-26T13:11:30.870Z,-7.32
2022-11-26T13:13:42.291Z,-7.43
2022-11-26T13:16:10.403Z,-7.48
2022-11-26T13:18:21.989Z,-7.36
2022-11-26T13:20:58.001Z,-7.41
2022-11-26T13:23:18.518Z,-7.42
2022-11-26T13:25:33.156Z,-7.44
2022-11-26T13:28:12.002Z,-7.42
2022-11-26T13:30:32.453Z,-7.48
2022-11-26T13:33:13.644Z,-7.55
2022-11-26T13:35:27.981Z,-7.42
2022-11-26T13:37:57.501Z,-7.41
2022-11-26T13:40:37.493Z,-7.28
2022-11-26T13:42:56.453Z,-7.24
2022-11-26T13:45:07.738Z,-7.31
2022-11-26T13:47:30.062Z,-7.29
2022-11-26T13:50:10.642Z,-7.29
2022-11-26T13:52:19.510Z,-7.27
2022-11-26T13:54:27.755Z,-7.34
2022-11-26T13:56:32.421Z,-7.35
2022-11-26T13:58:47.796Z,-7.25
2022-11-26T14:00:50.270Z,-7.16
2022-11-26T14:02:52.797Z,-7.16
2022-11-26T14:04:54.935Z,-7.07
2022-11-26T14:07:06.068Z,-7.01
2022-11-26T14:09:40.194Z,-7.17
2022-11-26T14:11:45.198Z,-7.22
2022-11-26T14:14:25.114Z,-7.20
2022-11-26T14:17:02.196Z,-7.16
2022-11-26T14:19:04.310Z,-7.34
2022-11-26T14:21:06.255Z,-7.27
2022-11-26T14:23:45.801Z,-7.26
2022-11-26T14:25:47.927Z,-7.45
2022-11-26T14:27:55.386Z,-7.46
2022-11-26T14:30:08.740Z,-7.36
2022-11-26T14:32:18.363Z,-7.36
2022-11-26T14:34:29.107Z,-7.27
2022-11-26T14:36:31.531Z,-7.32
2022-11-26T14:38:35.541Z,-7.18
2022-11-26T14:40:38.822Z,-7.35
2022-11-26T14:43:19.606Z,-7.25
2022-11-26T14:45:24.876Z,-7.35
2022-11-26T14:47:31.822Z,-7.28
2022-11-26T14:49:47.623Z,-7.25
2022-11-26T14:51:53.753Z,-7.25
2022-11-26T14:53:59.082Z,-7.18
2022-11-26T14:56:06.302Z,-7.16
2022-11-26T14:58:18.248Z,-7.27
2022-11-26T15:00:30.617Z,-7.36
2022-11-26T15:02:32.939Z,-7.32
2022-11-26T15:04:41.923Z,-7.26
2022-11-26T15:06:44.275Z,-7.23
2022-11-26T15:08:49.607Z,-7.29
2022-11-26T15:10:59.952Z,-7.27
2022-11-26T15:13:15.398Z,-7.25
2022-11-26T15:15:23.836Z,-7.18
2022-11-26T15:17:33.671Z,-7.17
2022-11-26T15:19:38.514Z,-7.10
2022-11-26T15:21:41.397Z,-7.09
2022-11-26T15:23:45.753Z,-7.12
2022-11-26T15:25:56.551Z,-7.22
2022-11-26T15:28:06.003Z,-7.27
2022-11-26T15:30:32.435Z,-7.32
2022-11-26T15:32:34.757Z,-7.31
2022-11-26T15:34:38.649Z,-7.18
2022-11-26T15:36:41.020Z,-7.21
2022-11-26T15:39:09.233Z,-7.24
2022-11-26T15:41:20.985Z,-7.21
2022-11-26T15:43:39.904Z,-7.29
2022-11-26T15:45:42.232Z,-7.31
2022-11-26T15:47:50.887Z,-7.37
2022-11-26T15:49:57.565Z,-7.36
2022-11-26T15:52:08.425Z,-7.44
2022-11-26T15:54:30.851Z,-7.37
2022-11-26T15:56:40.854Z,-7.29
2022-11-26T15:58:43.515Z,-7.28
2022-11-26T16:00:53.273Z,-7.28
2022-11-26T16:02:55.620Z,-7.31
2022-11-26T16:04:59.884Z,-7.21
2022-11-26T16:07:25.286Z,-7.20
2022-11-26T16:09:32.864Z,-7.10
2022-11-26T16:11:37.166Z,-7.08
2022-11-26T16:13:40.734Z,-7.08
2022-11-26T16:15:51.707Z,-7.27
2022-11-26T16:17:54.246Z,-7.27
2022-11-26T16:19:59.381Z,-7.35
2022-11-26T16:22:04.673Z,-7.20
2022-11-26T16:24:24.179Z,-7.24
2022-11-26T16:26:27.067Z,-7.22
2022-11-26T16:28:29.342Z,-7.36
2022-11-26T16:30:31.289Z,-7.31
2022-11-26T16:32:33.486Z,-7.35
2022-11-26T16:34:39.275Z,-7.32
2022-11-26T16:36:44.568Z,-7.35
2022-11-26T16:38:47.567Z,-7.31
2022-11-26T16:40:50.735Z,-7.25
2022-11-26T16:42:53.025Z,-7.25
2022-11-26T16:44:55.031Z,-7.26
2022-11-26T16:46:57.169Z,-7.27
2022-11-26T16:48:59.503Z,-7.26
2022-11-26T16:51:01.934Z,-7.25
2022-11-26T16:53:04.010Z,-7.27
2022-11-26T16:55:06.883Z,-7.31
2022-11-26T16:57:22.076Z,-7.33
2022-11-26T16:59:27.427Z,-7.28
2022-11-26T17:01:29.864Z,-7.16
2022-11-26T17:03:34.846Z,-7.20
2022-11-26T17:05:41.351Z,-7.13
2022-11-26T17:07:47.188Z,-7.13
2022-11-26T17:09:49.859Z,-7.12
2022-11-26T17:11:52.258Z,-7.15
2022-11-26T17:13:54.552Z,-7.14
2022-11-26T17:15:57.335Z,-7.15
2022-11-26T17:18:05.679Z,-7.29
2022-11-26T17:20:22.802Z,-7.28
2022-11-26T17:22:25.553Z,-7.32
2022-11-26T17:24:31.376Z,-7.25
2022-11-26T17:26:37.548Z,-7.25
2022-11-26T17:28:39.660Z,-7.32
2022-11-26T17:30:45.118Z,-7.27
2022-11-26T17:32:47.598Z,-7.20
2022-11-26T17:34:50.057Z,-7.15
2022-11-26T17:36:57.480Z,-7.20
2022-11-26T17:39:00.047Z,-7.26
2022-11-26T17:41:02.297Z,-7.33
2022-11-26T17:43:04.539Z,-7.33
2022-11-26T17:45:07.551Z,-7.34
2022-11-26T17:47:25.581Z,-7.33
2022-11-26T17:49:28.877Z,-7.31
2022-11-26T17:51:31.295Z,-7.22
2022-11-26T17:53:33.860Z,-7.18
2022-11-26T17:55:36.846Z,-7.13
2022-11-26T17:57:39.331Z,-7.18
2022-11-26T17:59:42.463Z,-7.28
2022-11-26T18:01:44.852Z,-7.08
2022-11-26T18:03:48.409Z,-7.24
2022-11-26T18:05:50.546Z,-7.29
2022-11-26T18:07:53.284Z,-7.47
2022-11-26T18:09:58.127Z,-7.32
2022-11-26T18:12:01.275Z,-7.28
2022-11-26T18:14:03.743Z,-7.31
2022-11-26T18:16:06.545Z,-7.35
2022-11-26T18:18:08.741Z,-7.43
2022-11-26T18:20:11.142Z,-7.39
2022-11-26T18:22:17.405Z,-7.45
2022-11-26T18:24:19.731Z,-7.33
2022-11-26T18:26:31.011Z,-7.28
2022-11-26T18:28:33.958Z,-7.32
2022-11-26T18:30:36.727Z,-7.35
2022-11-26T18:32:39.570Z,-7.36
2022-11-26T18:34:41.664Z,-7.35
2022-11-26T18:36:43.756Z,-7.54
2022-11-26T18:38:46.209Z,-7.49
2022-11-26T18:40:59.133Z,-7.27
2022-11-26T18:43:01.440Z,-7.28
2022-11-26T18:45:03.739Z,-7.23
2022-11-26T18:47:09.295Z,-7.20
2022-11-26T18:49:11.697Z,-7.24
2022-11-26T18:51:14.557Z,-7.67
2022-11-26T18:53:17.010Z,-7.34
2022-11-26T18:55:19.202Z,-7.33
2022-11-26T18:57:21.368Z,-7.42
2022-11-26T18:59:23.487Z,-7.55
2022-11-26T19:01:29.616Z,-7.38
2022-11-26T19:03:33.643Z,-7.40
2022-11-26T19:05:37.774Z,-7.42
2022-11-26T19:07:40.550Z,-7.50
2022-11-26T19:10:02.738Z,-7.38
2022-11-26T19:12:05.317Z,-7.39
2022-11-26T19:14:08.091Z,-7.60
2022-11-26T19:16:30.639Z,-7.40
2022-11-26T19:18:32.788Z,-7.35
2022-11-26T19:20:35.579Z,-7.41
2022-11-26T19:22:47.145Z,-7.59
2022-11-26T19:24:49.289Z,-7.34
2022-11-26T19:26:51.550Z,-7.29
2022-11-26T19:29:01.655Z,-7.24
2022-11-26T19:31:14.447Z,-7.46
2022-11-26T19:33:34.332Z,-7.29
2022-11-26T19:35:40.625Z,-7.35
2022-11-26T19:37:43.125Z,-7.23
2022-11-26T19:39:45.317Z,-7.45
2022-11-26T19:41:48.040Z,-7.24
2022-11-26T19:43:50.569Z,-7.26
2022-11-26T19:46:07.884Z,-7.32
2022-11-26T19:48:10.146Z,-7.39
2022-11-26T19:50:12.168Z,-7.42
2022-11-26T19:52:14.443Z,-7.55
2022-11-26T19:54:16.401Z,-7.42
2022-11-26T19:56:29.971Z,-7.40
2022-11-26T19:58:34.036Z,-7.44
2022-11-26T20:00:36.619Z,-7.48
2022-11-26T20:02:39.286Z,-7.56
2022-11-26T20:04:42.011Z,-7.62
2022-11-26T20:07:04.005Z,-7.53
2022-11-26T20:09:08.309Z,-7.58
2022-11-26T20:11:11.328Z,-7.55
2022-11-26T20:13:13.610Z,-7.83
2022-11-26T20:15:47.586Z,-7.73
2022-11-26T20:17:49.783Z,-7.68
2022-11-26T20:19:55.104Z,-7.71
2022-11-26T20:21:57.406Z,-7.74
2022-11-26T20:24:04.290Z,-7.79
2022-11-26T20:26:16.225Z,-7.74
2022-11-26T20:28:18.461Z,-7.62
2022-11-26T20:30:22.511Z,-7.70
2022-11-26T20:32:30.670Z,-7.86
2022-11-26T20:34:34.026Z,-7.74
2022-11-26T20:36:37.911Z,-7.61
2022-11-26T20:38:40.464Z,-7.67
2022-11-26T20:40:43.201Z,-7.59
2022-11-26T20:42:46.869Z,-7.54
2022-11-26T20:44:52.179Z,-7.52
2022-11-26T20:46:57.203Z,-7.53
2022-11-26T20:48:59.851Z,-7.53
2022-11-26T20:51:07.922Z,-7.53
2022-11-26T20:53:10.049Z,-7.47
2022-11-26T20:55:12.702Z,-7.43
2022-11-26T20:57:18.185Z,-7.45
2022-11-26T20:59:20.779Z,-7.37
2022-11-26T21:01:26.101Z,-7.42
2022-11-26T21:03:29.595Z,-7.44
2022-11-26T21:05:33.760Z,-7.40
2022-11-26T21:07:36.197Z,-7.48
2022-11-26T21:09:49.693Z,-7.43
2022-11-26T21:11:51.925Z,-7.49
2022-11-26T21:13:54.893Z,-7.50
2022-11-26T21:15:57.566Z,-7.52
2022-11-26T21:18:00.200Z,-7.54
2022-11-26T21:20:05.572Z,-7.44
2022-11-26T21:22:08.134Z,-7.39
2022-11-26T21:24:11.039Z,-7.40
2022-11-26T21:26:19.236Z,-7.31
2022-11-26T21:28:21.965Z,-7.76
2022-11-26T21:30:24.809Z,-7.35
2022-11-26T21:32:27.295Z,-7.39
2022-11-26T21:34:29.560Z,-7.33
2022-11-26T21:36:33.492Z,-7.35
2022-11-26T21:38:36.958Z,-7.51
2022-11-26T21:40:39.222Z,-7.40
2022-11-26T21:42:41.439Z,-7.38
2022-11-26T21:44:43.564Z,-7.31
2022-11-26T21:46:46.393Z,-7.39
2022-11-26T21:48:49.660Z,-7.36
2022-11-26T21:50:51.814Z,-7.40
2022-11-26T21:52:56.197Z,-7.37
2022-11-26T21:55:03.272Z,-7.45
2022-11-26T21:57:11.105Z,-7.42
2022-11-26T21:59:13.742Z,-7.28
2022-11-26T22:01:18.346Z,-7.25
2022-11-26T22:03:20.669Z,-7.28
2022-11-26T22:05:23.546Z,-7.24
2022-11-26T22:07:25.615Z,-7.19
2022-11-26T22:09:29.331Z,-7.24
2022-11-26T22:11:35.820Z,-7.33
2022-11-26T22:13:39.918Z,-7.34
2022-11-26T22:15:44.500Z,-7.42
2022-11-26T22:17:47.152Z,-7.42
2022-11-26T22:19:49.044Z,-7.34
2022-11-26T22:21:51.220Z,-7.52
2022-11-26T22:23:53.574Z,-7.38
2022-11-26T22:25:55.830Z,-7.36
2022-11-26T22:27:57.844Z,-7.40
2022-11-26T22:30:00.031Z,-7.39
2022-11-26T22:32:02.064Z,-7.27
2022-11-26T22:34:08.022Z,-7.18
2022-11-26T22:36:10.333Z,-7.21
2022-11-26T22:38:12.983Z,-7.18
2022-11-26T22:40:15.124Z,-7.33
2022-11-26T22:42:17.163Z,-7.24
2022-11-26T22:44:19.405Z,-7.20
2022-11-26T22:46:23.102Z,-7.12
2022-11-26T22:48:25.330Z,-7.14
2022-11-26T22:50:27.351Z,-7.17
2022-11-26T22:52:29.484Z,-7.14
2022-11-26T22:54:32.145Z,-7.20
2022-11-26T22:56:34.171Z,-7.10
2022-11-26T22:58:36.186Z,-7.15
2022-11-26T23:00:52.046Z,-7.22
2022-11-26T23:02:54.414Z,-7.34
2022-11-26T23:04:56.464Z,-7.35
2022-11-26T23:06:58.646Z,-7.36
2022-11-26T23:09:03.433Z,-7.41
2022-11-26T23:11:07.645Z,-7.28
2022-11-26T23:13:11.920Z,-7.22
2022-11-26T23:15:14.078Z,-7.31
2022-11-26T23:17:16.600Z,-7.27
2022-11-26T23:19:18.694Z,-7.21
2022-11-26T23:21:32.456Z,-7.13
2022-11-26T23:23:37.495Z,-7.14
2022-11-26T23:25:41.069Z,-6.97
2022-11-26T23:27:43.187Z,-7.05
2022-11-26T23:29:45.254Z,-7.16
2022-11-26T23:31:47.338Z,-7.22
2022-11-26T23:33:50.256Z,-7.29
2022-11-26T23:35:52.372Z,-7.36
2022-11-26T23:37:54.417Z,-7.32
2022-11-26T23:39:56.454Z,-7.66
2022-11-26T23:41:58.627Z,-7.16
2022-11-26T23:44:00.704Z,-7.14
2022-11-26T23:46:28.945Z,-7.14
2022-11-26T23:48:31.546Z,-7.11
2022-11-26T23:50:33.723Z,-7.06
2022-11-26T23:52:36.315Z,-7.14
2022-11-26T23:54:38.442Z,-7.14
2022-11-26T23:56:44.523Z,-7.11
2022-11-26T23:58:51.611Z,-7.13
